createdAt,value
2019-05-03T00:00:37.683Z,4.80
2019-05-03T00:03:12.079Z,5.00
2019-05-03T00:05:52.458Z,4.93
2019-05-03T00:08:24.302Z,4.80
2019-05-03T00:10:59.466Z,4.93
2019-05-03T00:13:29.275Z,4.47
2019-05-03T00:16:14.770Z,4.70
2019-05-03T00:18:45.480Z,5.30
2019-05-03T00:21:17.156Z,5.00
2019-05-03T00:23:52.294Z,5.40
2019-05-03T00:26:22.767Z,4.97
2019-05-03T00:28:55.703Z,5.23
2019-05-03T00:31:25.715Z,4.97
2019-05-03T00:34:02.272Z,4.87
2019-05-03T00:36:48.975Z,3.83
2019-05-03T00:39:26.813Z,4.70
2019-05-03T00:41:56.839Z,4.50
2019-05-03T00:44:26.782Z,5.50
2019-05-03T00:46:56.664Z,5.37
2019-05-03T00:49:27.036Z,5.60
2019-05-03T00:51:56.913Z,4.90
2019-05-03T00:54:27.062Z,5.00
2019-05-03T00:56:56.927Z,5.33
2019-05-03T00:59:26.859Z,4.57
2019-05-03T01:01:56.751Z,5.40
2019-05-03T01:04:26.592Z,4.00
2019-05-03T01:06:56.584Z,4.03
2019-05-03T01:09:27.731Z,4.00
2019-05-03T01:11:57.730Z,4.10
2019-05-03T01:14:27.698Z,4.50
2019-05-03T01:16:57.580Z,3.80
2019-05-03T01:19:27.537Z,3.45
2019-05-03T01:21:57.320Z,3.57
2019-05-03T01:24:27.226Z,3.80
2019-05-03T01:26:57.032Z,3.30
2019-05-03T01:29:26.860Z,3.20
2019-05-03T01:31:56.772Z,3.10
2019-05-03T01:34:26.647Z,3.70
2019-05-03T01:36:56.476Z,3.60
2019-05-03T01:39:26.655Z,3.92
2019-05-03T01:41:56.468Z,4.05
2019-05-03T01:44:26.244Z,3.80
2019-05-03T01:46:57.718Z,4.13
2019-05-03T01:49:32.445Z,3.55
2019-05-03T01:52:21.925Z,4.30
2019-05-03T01:54:52.212Z,4.30
2019-05-03T01:57:22.454Z,4.20
2019-05-03T01:59:52.335Z,3.77
2019-05-03T02:02:52.373Z,3.70
2019-05-03T02:05:42.869Z,3.40
2019-05-03T02:08:14.205Z,3.47
2019-05-03T02:10:45.249Z,3.55
2019-05-03T02:13:15.292Z,3.35
2019-05-03T02:15:45.528Z,3.90
2019-05-03T02:18:15.734Z,3.55
2019-05-03T02:20:45.650Z,3.40
2019-05-03T02:23:15.504Z,3.70
2019-05-03T02:25:55.615Z,2.97
2019-05-03T02:28:17.271Z,3.27
2019-05-03T02:30:47.109Z,3.40
2019-05-03T02:33:17.088Z,3.10
2019-05-03T02:35:46.984Z,3.23
2019-05-03T02:38:16.988Z,3.73
2019-05-03T02:40:46.766Z,2.70
2019-05-03T02:43:21.793Z,3.23
2019-05-03T02:45:59.757Z,3.10
2019-05-03T02:48:36.608Z,2.93
2019-05-03T02:51:06.785Z,3.33
2019-05-03T02:53:36.778Z,3.10
2019-05-03T02:56:21.094Z,3.17
2019-05-03T02:58:38.500Z,3.33
2019-05-03T03:01:08.582Z,2.90
2019-05-03T03:03:39.312Z,3.33
2019-05-03T03:06:09.332Z,3.90
2019-05-03T03:08:39.600Z,3.87
2019-05-03T03:11:10.080Z,3.73
2019-05-03T03:13:40.141Z,2.57
2019-05-03T03:16:10.667Z,3.30
2019-05-03T03:18:41.862Z,3.13
2019-05-03T03:21:16.402Z,2.83
2019-05-03T03:23:58.233Z,2.90
2019-05-03T03:26:37.584Z,3.17
2019-05-03T03:29:05.650Z,3.40
2019-05-03T03:32:02.304Z,3.00
2019-05-03T03:34:38.573Z,3.37
2019-05-03T03:37:10.179Z,3.47
2019-05-03T03:39:40.869Z,3.40
2019-05-03T03:42:10.943Z,2.93
2019-05-03T03:44:40.833Z,3.00
2019-05-03T03:47:16.350Z,2.90
2019-05-03T03:49:46.306Z,3.33
2019-05-03T03:52:19.335Z,3.53
2019-05-03T03:54:50.337Z,4.63
2019-05-03T03:57:20.971Z,3.80
2019-05-03T03:59:50.917Z,3.90
2019-05-03T04:02:20.869Z,2.90
2019-05-03T04:04:50.833Z,3.57
2019-05-03T04:07:21.105Z,3.23
2019-05-03T04:09:51.363Z,3.50
2019-05-03T04:12:22.366Z,4.20
2019-05-03T04:15:01.751Z,3.33
2019-05-03T04:17:56.878Z,3.67
2019-05-03T04:20:30.772Z,3.87
2019-05-03T04:23:00.811Z,3.93
2019-05-03T04:25:30.674Z,3.83
2019-05-03T04:28:00.559Z,3.83
2019-05-03T04:30:30.464Z,3.37
2019-05-03T04:33:00.304Z,3.80
2019-05-03T04:35:30.146Z,3.90
2019-05-03T04:38:00.028Z,4.47
2019-05-03T04:40:30.103Z,4.40
2019-05-03T04:43:00.036Z,3.77
2019-05-03T04:45:30.121Z,3.47
2019-05-03T04:48:00.074Z,3.37
2019-05-03T04:55:27.678Z,3.33
2019-05-03T10:18:10.556Z,2.75
2019-05-03T10:20:35.670Z,2.13
2019-05-03T10:23:15.131Z,3.00
2019-05-03T10:25:45.520Z,2.20
2019-05-03T10:28:17.858Z,2.80
2019-05-03T11:06:21.882Z,1.87
2019-05-03T11:08:51.996Z,1.87
2019-05-03T11:11:23.208Z,2.00
2019-05-03T11:13:55.199Z,1.63
2019-05-03T11:16:28.205Z,2.07
2019-05-03T11:19:05.692Z,1.80
2019-05-03T11:21:35.876Z,2.20
2019-05-03T11:24:07.472Z,2.47
2019-05-03T11:26:39.365Z,2.67
2019-05-03T11:29:15.247Z,2.40
2019-05-03T11:32:10.218Z,2.17
2019-05-03T11:35:00.767Z,2.00
2019-05-03T11:37:52.723Z,2.73
2019-05-03T11:40:28.937Z,2.57
2019-05-03T11:43:07.127Z,1.50
2019-05-03T11:45:41.173Z,2.30
2019-05-03T11:53:15.370Z,2.63
2019-05-03T11:58:25.815Z,2.20
2019-05-03T12:01:18.875Z,2.40
2019-05-03T12:04:05.508Z,2.80
2019-05-03T12:06:27.782Z,2.10
2019-05-03T12:09:12.721Z,2.70
2019-05-03T12:11:47.740Z,3.27
2019-05-03T12:14:19.989Z,3.30
2019-05-03T12:17:17.238Z,2.47
2019-05-03T12:19:32.011Z,2.17
2019-05-03T12:22:06.164Z,2.23
2019-05-03T12:24:45.840Z,2.67
2019-05-03T12:27:15.599Z,2.10
2019-05-03T12:29:46.410Z,2.13
2019-05-03T12:32:19.146Z,2.30
2019-05-03T12:34:59.355Z,2.40
2019-05-03T12:37:29.522Z,2.90
2019-05-03T12:39:59.803Z,2.40
2019-05-03T12:42:35.252Z,2.67
2019-05-03T12:45:15.233Z,2.20
2019-05-03T12:47:47.612Z,2.70
2019-05-03T12:50:20.114Z,2.20
2019-05-03T12:52:50.734Z,2.60
2019-05-03T12:55:25.740Z,2.80
2019-05-03T12:57:56.024Z,2.53
2019-05-03T13:00:47.913Z,2.80
2019-05-03T13:03:45.666Z,3.08
2019-05-03T13:06:17.667Z,2.30
2019-05-03T13:08:47.973Z,2.80
2019-05-03T13:11:18.457Z,3.17
2019-05-03T13:13:48.696Z,3.10
2019-05-03T13:16:20.304Z,3.47
2019-05-03T13:18:50.301Z,2.60
2019-05-03T13:21:25.291Z,2.60
2019-05-03T13:23:55.851Z,3.10
2019-05-03T13:26:25.967Z,2.80
2019-05-03T13:28:59.785Z,2.67
2019-05-03T13:31:30.340Z,2.63
2019-05-03T13:34:02.223Z,2.80
2019-05-03T13:36:34.908Z,3.20
2019-05-03T13:39:14.074Z,2.70
2019-05-03T13:41:39.648Z,2.93
2019-05-03T13:44:09.625Z,3.50
2019-05-03T13:46:44.727Z,2.87
2019-05-03T13:49:15.877Z,3.20
2019-05-03T13:51:46.117Z,3.10
2019-05-03T13:54:16.237Z,3.07
2019-05-03T13:59:19.782Z,3.00
2019-05-03T14:01:46.762Z,2.57
2019-05-03T14:04:16.630Z,2.20
2019-05-03T14:06:46.576Z,2.60
2019-05-03T14:09:16.459Z,2.67
2019-05-03T14:11:46.601Z,2.70
2019-05-03T14:14:16.431Z,2.40
2019-05-03T14:16:46.448Z,2.60
2019-05-03T14:19:22.793Z,2.70
2019-05-03T14:21:57.256Z,3.47
2019-05-03T14:24:27.576Z,7.60
2019-05-03T14:26:57.849Z,4.20
2019-05-03T14:29:29.453Z,2.83
2019-05-03T14:31:59.253Z,3.40
2019-05-03T14:34:29.129Z,3.60
2019-05-03T14:37:00.833Z,3.53
2019-05-03T14:39:30.715Z,4.47
2019-05-03T14:42:00.687Z,4.57
2019-05-03T14:44:30.552Z,3.53
2019-05-03T14:47:00.431Z,3.20
2019-05-03T14:49:30.525Z,4.20
2019-05-03T14:52:00.400Z,3.50
2019-05-03T14:54:34.425Z,3.37
2019-05-03T14:57:14.567Z,4.10
2019-05-03T15:00:16.904Z,2.80
2019-05-03T15:03:02.051Z,2.80
2019-05-03T15:05:34.680Z,3.13
2019-05-03T15:08:05.537Z,3.03
2019-05-03T15:10:35.572Z,3.93
2019-05-03T15:13:05.499Z,3.50
2019-05-03T15:15:35.360Z,3.90
2019-05-03T15:18:05.979Z,3.30
2019-05-03T15:20:36.288Z,3.17
2019-05-03T15:23:06.668Z,3.70
2019-05-03T15:25:39.087Z,4.10
2019-05-03T15:28:08.963Z,2.87
2019-05-03T15:30:39.212Z,4.23
2019-05-03T15:33:09.312Z,2.90
2019-05-03T15:35:39.154Z,2.70
2019-05-03T15:38:09.057Z,2.70
2019-05-03T15:40:38.910Z,3.20
2019-05-03T15:43:16.624Z,4.20
2019-05-03T15:45:54.833Z,2.80
2019-05-03T15:48:29.832Z,3.43
2019-05-03T15:50:59.977Z,4.90
2019-05-03T15:53:29.937Z,3.90
2019-05-03T15:55:59.774Z,3.17
2019-05-03T15:58:29.762Z,3.97
2019-05-03T16:00:59.854Z,2.80
2019-05-03T16:03:29.724Z,3.40
2019-05-03T16:06:00.066Z,4.37
2019-05-03T16:08:29.980Z,3.87
2019-05-03T16:11:00.125Z,2.83
2019-05-03T16:13:30.043Z,4.77
2019-05-03T16:16:00.087Z,3.13
2019-05-03T16:18:29.994Z,4.40
2019-05-03T16:20:59.968Z,2.90
2019-05-03T16:23:29.771Z,2.93
2019-05-03T16:26:00.621Z,5.50
2019-05-03T16:28:39.337Z,3.20
2019-05-03T16:31:14.432Z,2.77
2019-05-03T16:33:45.672Z,3.80
2019-05-03T16:36:15.890Z,3.33
2019-05-03T16:38:46.377Z,2.93
2019-05-03T16:41:17.922Z,2.83
2019-05-03T16:43:48.005Z,3.80
2019-05-03T16:46:20.106Z,3.37
2019-05-03T16:48:50.167Z,3.40
2019-05-03T16:51:20.500Z,3.10
2019-05-03T16:53:50.571Z,4.33
2019-05-03T16:56:20.581Z,2.87
2019-05-03T16:58:50.801Z,2.67
2019-05-03T17:01:20.794Z,4.13
2019-05-03T17:03:55.053Z,2.73
2019-05-03T17:06:35.499Z,2.27
2019-05-03T17:09:25.117Z,3.07
2019-05-03T17:12:10.439Z,3.07
2019-05-03T17:14:40.650Z,3.17
2019-05-03T17:17:10.891Z,3.83
2019-05-03T17:19:41.020Z,3.77
2019-05-03T17:22:11.015Z,3.60
2019-05-03T17:24:41.044Z,2.80
2019-05-03T17:27:11.138Z,3.20
2019-05-03T17:29:41.272Z,3.10
2019-05-03T17:32:11.282Z,3.30
2019-05-03T17:34:41.439Z,2.63
2019-05-03T17:37:11.894Z,4.07
2019-05-03T17:40:07.186Z,3.53
2019-05-03T17:43:02.162Z,3.43
2019-05-03T17:45:38.178Z,3.07
2019-05-03T17:48:20.326Z,3.33
2019-05-03T17:50:58.161Z,3.00
2019-05-03T17:53:54.820Z,3.30
2019-05-03T17:56:44.569Z,4.03
2019-05-03T17:59:24.487Z,4.40
2019-05-03T18:02:15.417Z,3.93
2019-05-03T18:04:54.973Z,3.40
2019-05-03T18:07:41.799Z,2.53
2019-05-03T18:10:15.208Z,3.30
2019-05-03T18:12:45.300Z,3.20
2019-05-03T18:15:15.656Z,4.57
2019-05-03T18:17:45.831Z,3.10
2019-05-03T18:20:15.876Z,3.00
2019-05-03T18:22:46.010Z,2.83
2019-05-03T18:25:16.218Z,3.50
2019-05-03T18:27:47.807Z,4.23
2019-05-03T18:30:18.110Z,4.80
2019-05-03T18:32:48.085Z,4.90
2019-05-03T18:35:18.074Z,4.30
2019-05-03T18:37:59.480Z,5.17
2019-05-03T18:40:32.293Z,5.83
2019-05-03T18:43:08.090Z,3.70
2019-05-03T18:46:08.711Z,4.43
2019-05-03T18:48:38.840Z,3.63
2019-05-03T18:51:10.307Z,4.80
2019-05-03T18:53:40.272Z,3.90
2019-05-03T18:56:14.623Z,3.13
2019-05-03T18:58:44.918Z,3.20
2019-05-03T19:01:15.504Z,4.50
2019-05-03T19:03:47.634Z,4.60
2019-05-03T19:06:18.942Z,3.20
2019-05-03T19:09:07.198Z,3.93
2019-05-03T19:12:00.354Z,3.67
2019-05-03T19:14:32.075Z,3.40
2019-05-03T19:17:20.167Z,4.47
2019-05-03T19:19:52.205Z,3.13
2019-05-03T19:22:22.509Z,3.60
2019-05-03T19:24:52.622Z,4.73
2019-05-03T19:27:24.681Z,2.90
2019-05-03T19:29:55.661Z,3.03
2019-05-03T19:32:28.359Z,3.27
2019-05-03T19:35:04.947Z,3.10
2019-05-03T19:37:35.372Z,3.33
2019-05-03T19:40:06.490Z,3.30
2019-05-03T19:42:37.632Z,3.53
2019-05-03T19:45:11.240Z,3.20
2019-05-03T19:47:41.264Z,2.97
2019-05-03T19:50:11.449Z,4.00
2019-05-03T19:53:08.893Z,2.90
2019-05-03T19:55:39.292Z,3.77
2019-05-03T19:58:09.598Z,3.03
2019-05-03T20:00:48.936Z,2.97
2019-05-03T20:03:31.172Z,2.70
2019-05-03T20:06:14.381Z,3.20
2019-05-03T20:08:48.033Z,3.50
2019-05-03T20:11:19.184Z,3.00
2019-05-03T20:13:49.619Z,4.03
2019-05-03T20:16:19.524Z,3.57
2019-05-03T20:18:49.452Z,3.90
2019-05-03T20:21:22.188Z,3.40
2019-05-03T20:23:52.138Z,3.27
2019-05-03T20:26:25.296Z,3.60
2019-05-03T20:28:55.448Z,2.73
2019-05-03T20:31:25.535Z,5.20
2019-05-03T20:33:55.384Z,3.60
2019-05-03T20:36:27.032Z,5.60
2019-05-03T20:38:56.933Z,3.93
2019-05-03T20:41:27.545Z,4.20
2019-05-03T20:44:11.716Z,4.63
2019-05-03T20:46:49.847Z,5.30
2019-05-03T20:49:19.939Z,4.07
2019-05-03T20:51:51.337Z,3.50
2019-05-03T20:54:21.434Z,3.43
2019-05-03T20:56:51.665Z,4.87
2019-05-03T20:59:21.607Z,3.50
2019-05-03T21:01:51.573Z,3.70
2019-05-03T21:04:21.491Z,4.03
2019-05-03T21:06:51.528Z,3.60
2019-05-03T21:09:21.540Z,3.97
2019-05-03T21:11:51.495Z,3.50
2019-05-03T21:14:21.653Z,3.33
2019-05-03T21:17:04.564Z,3.30
2019-05-03T21:19:55.167Z,3.40
2019-05-03T21:22:30.443Z,3.70
2019-05-03T21:25:07.356Z,3.37
2019-05-03T21:27:37.628Z,3.10
2019-05-03T21:30:07.876Z,3.53
2019-05-03T21:32:37.773Z,2.80
2019-05-03T21:35:07.903Z,2.77
2019-05-03T21:37:37.989Z,3.43
2019-05-03T21:40:08.155Z,3.17
2019-05-03T21:42:38.157Z,2.50
2019-05-03T21:45:09.239Z,3.03
2019-05-03T21:48:05.040Z,3.33
2019-05-03T21:50:35.349Z,3.20
2019-05-03T21:53:05.849Z,3.00
2019-05-03T21:55:36.524Z,2.90
2019-05-03T21:58:10.050Z,3.37
2019-05-03T22:00:50.931Z,3.23
2019-05-03T22:03:21.548Z,3.30
2019-05-03T22:06:00.360Z,5.00
2019-05-03T22:08:34.927Z,4.30
2019-05-03T22:11:05.456Z,3.40
2019-05-03T22:13:37.121Z,4.27
2019-05-03T22:16:34.487Z,3.27
2019-05-03T22:19:08.433Z,3.80
2019-05-03T22:22:12.264Z,3.80
2019-05-03T22:24:47.843Z,4.63
2019-05-03T22:27:24.649Z,3.80
2019-05-03T22:30:00.770Z,4.70
2019-05-03T22:32:35.488Z,3.70
2019-05-03T22:35:10.257Z,4.00
2019-05-03T22:37:46.558Z,3.50
2019-05-03T22:40:25.147Z,4.07
2019-05-03T22:42:57.102Z,3.33
2019-05-03T22:45:30.598Z,3.90
2019-05-03T22:48:02.847Z,4.10
2019-05-03T22:50:40.481Z,4.47
2019-05-03T22:53:17.143Z,4.30
2019-05-03T22:55:48.428Z,4.17
2019-05-03T22:58:22.175Z,4.47
2019-05-03T23:00:55.745Z,4.40
2019-05-03T23:03:30.882Z,3.73
2019-05-03T23:06:19.336Z,3.40
2019-05-03T23:13:47.540Z,3.80
2019-05-03T23:16:19.559Z,3.00
2019-05-03T23:18:54.797Z,3.90
2019-05-03T23:21:31.153Z,3.47
2019-05-03T23:24:07.702Z,4.17
2019-05-03T23:26:42.738Z,3.87
2019-05-03T23:29:15.638Z,3.60
2019-05-03T23:31:46.209Z,4.03
2019-05-03T23:34:19.149Z,4.37
2019-05-03T23:36:54.832Z,3.80
2019-05-03T23:39:27.194Z,4.80
2019-05-03T23:42:06.895Z,4.00
2019-05-03T23:44:37.245Z,4.10
2019-05-03T23:47:29.373Z,4.07
2019-05-03T23:50:02.792Z,4.40
2019-05-03T23:52:40.434Z,4.63
2019-05-03T23:55:34.746Z,3.87
2019-05-03T23:58:07.230Z,5.50
